McChord Air Force Base
KTCM : rendu visible

Aérodrome :











RETROUVEZ-NOUS SUR...

 
LOGIN :

S'inscrire | Disclaimer

   EN    FR    IT 

 









Légende :    VFR   VFR Marginal   IFR   IFR Intensif   IFR Très Intensif
Visi : 
Plafond : 
>= 8 km
>= 3000ft
5 à 8 km
1000 à 3000 ft
1500m à 5 km
500 à 1000 ft
800 à 1500m
200 à 500 ft
< 800m
< 200 ft
Symboles :   Orages  Brouillard  Fortes neiges  Fortes précipitations  Vent > 20 kt






- Altitude de l'aérodrome : 322 ft


KTCM - McChord Air Force Base

DERNIER METAR :
  • 042358Z AUTO 03011KT 10SM FEW080 SCT150 12/M01 A2964 RMK AO2 SLP042 T01211014 10124 20073 57025 $

METARs EXPIRÉS :
  • 042258Z AUTO 01011KT 10SM FEW060 OVC120 12/M02 A2965 RMK AO2 SLP046 T01221017 $
  • 042158Z AUTO 36008KT 10SM BKN060 11/M01 A2968 RMK AO2 SLP056 T01111007 $

TAF TAF KTCM
Valide du 04 à 21h jusqu'au 06 à 03h UTC


042100Z 0421/0603 34009KT 9999 BKN040 BKN180 620409 QNH2959INS
BECMG 0504/0505 02006KT 9999 VCSH OVC040 610409 QNH2954INS
BECMG 0523/0524 01010KT 9999 NSW SCT030 BKN045 QNH2953INS TX11/0521Z TN02/0514Z



MET'MAP, la Météo Aéronautique d'un coup d'oeil ! - Copyright ORBIFLY Décembre 2007 - Disclaimer

ORBIFLY MET'MAP TEAM :

Programmation & Développement : Alexandra Zaïnal
Sur une idée originale de : Baudouin d'Aumeries
Assistance à la programmation : Marc-Olivier Méhu
Soutien technique & logistique : Manuel Goepfert

Contact : metmap@orbifly.com




SOURCES & CREDITS :

   NOAA       Earth
Advisory